This is the latest recevied weather packets stored in our database for station/object W1CAT. If no packets are shown the sender has not sent any weather packets the latest 10 day(s).
| Time | Temp. | Humidity | Pressure | Rain* | Wind** | Luminosity | Snow |
|---|---|---|---|---|---|---|---|
| 1777824325 | 13.89° C | 37% | - | 0 mm | - | - | - |
| 1777824021 | 13.33° C | 37% | - | 0 mm | - | - | - |
| 1777823717 | 13.33° C | 37% | - | 0 mm | - | - | - |
| 1777823414 | 13.33° C | 37% | - | 0 mm | - | - | - |
| 1777823112 | 12.78° C | 37% | - | 0 mm | - | - | - |
| 1777822809 | 12.78° C | 39% | - | 0 mm | - | - | - |
| 1777822507 | 12.22° C | 40% | - | 0 mm | - | - | - |
| 1777822204 | 12.22° C | 37% | - | 0 mm | - | - | - |
| 1777821901 | 11.67° C | 39% | - | 0 mm | - | - | - |
| 1777821599 | 10° C | 43% | - | 0 mm | - | - | - |
| 1777821297 | 8.89° C | 45% | - | 0 mm | - | - | - |
| 1777820994 | 9.44° C | 48% | - | 0 mm | - | - | - |
| 1777820690 | 8.89° C | 50% | - | 0 mm | - | - | - |
| 1777820386 | 8.89° C | 51% | - | 0 mm | - | - | - |
| 1777820084 | 7.78° C | 53% | - | 0 mm | - | - | - |
| 1777819781 | 7.22° C | 55% | - | 0 mm | - | - | - |
| 1777819479 | 7.22° C | 54% | - | 0 mm | - | - | - |
| 1777819177 | 6.67° C | 56% | - | 0 mm | - | - | - |
| 1777818873 | 6.67° C | 56% | - | 0 mm | - | - | - |
| 1777818569 | 6.67° C | 57% | - | 0 mm | - | - | - |
| 1777818267 | 6.11° C | 59% | - | 0 mm | - | - | - |
| 1777817963 | 5° C | 63% | - | 0 mm | - | - | - |
| 1777817660 | 5° C | 61% | - | 0 mm | - | - | - |
| 1777817357 | 4.44° C | 66% | - | 0 mm | - | - | - |
| 1777817054 | 3.33° C | 70% | - | 0 mm | - | - | - |
* Rain latest hour (hover to see other rain measurements)
** Current wind speed in m/s (hover to see current wind gust speed)